createdAt,value
2023-02-11T00:01:00.323Z,35.90
2023-02-11T00:03:26.936Z,32.00
2023-02-11T00:05:58.208Z,32.90
2023-02-11T00:08:25.067Z,33.90
2023-02-11T00:10:53.606Z,35.80
2023-02-11T00:13:20.090Z,33.00
2023-02-11T00:15:46.765Z,33.80
2023-02-11T00:18:13.555Z,33.50
2023-02-11T00:20:41.161Z,38.80
2023-02-11T00:23:07.882Z,44.30
2023-02-11T00:25:35.134Z,46.20
2023-02-11T00:28:01.717Z,48.80
2023-02-11T00:30:28.333Z,46.30
2023-02-11T00:32:54.942Z,46.70
2023-02-11T00:35:21.429Z,47.60
2023-02-11T00:37:47.961Z,47.00
2023-02-11T00:40:15.365Z,57.00
2023-02-11T00:42:42.817Z,52.70
2023-02-11T00:45:09.607Z,57.70
2023-02-11T00:47:36.916Z,52.60
2023-02-11T00:50:05.577Z,52.30
2023-02-11T00:52:33.104Z,39.50
2023-02-11T00:54:59.800Z,40.90
2023-02-11T00:57:26.321Z,39.30
2023-02-11T00:59:52.787Z,37.20
2023-02-11T01:02:19.360Z,35.80
2023-02-11T01:04:45.976Z,34.70
2023-02-11T01:07:12.486Z,32.80
2023-02-11T01:09:39.055Z,32.70
2023-02-11T01:12:05.791Z,36.50
2023-02-11T01:14:32.735Z,37.90
2023-02-11T01:17:01.466Z,38.40
2023-02-11T01:19:28.090Z,41.70
2023-02-11T01:21:54.617Z,43.10
2023-02-11T01:24:21.088Z,39.80
2023-02-11T01:26:47.545Z,42.00
2023-02-11T01:29:14.133Z,45.10
2023-02-11T01:31:40.773Z,38.50
2023-02-11T01:34:09.814Z,38.90
2023-02-11T01:36:36.436Z,44.50
2023-02-11T01:39:03.540Z,39.90
2023-02-11T01:41:30.429Z,43.40
2023-02-11T01:43:57.076Z,43.30
2023-02-11T01:46:35.982Z,39.00
2023-02-11T01:49:18.403Z,38.30
2023-02-11T01:51:54.388Z,44.60
2023-02-11T01:54:24.979Z,41.70
2023-02-11T01:56:54.710Z,47.20
2023-02-11T01:59:27.840Z,46.90
2023-02-11T02:02:00.772Z,47.60
2023-02-11T02:04:30.686Z,53.20
2023-02-11T02:07:05.344Z,56.30
2023-02-11T02:09:39.701Z,52.50
2023-02-11T02:12:06.451Z,54.50
2023-02-11T02:14:33.270Z,61.20
2023-02-11T02:16:59.751Z,67.70
2023-02-11T02:19:46.124Z,78.60
2023-02-11T02:22:54.780Z,83.90
2023-02-11T02:25:43.314Z,87.80
2023-02-11T02:28:37.254Z,85.50
2023-02-11T02:31:19.163Z,90.60
2023-02-11T02:33:50.119Z,90.80
2023-02-11T02:36:30.524Z,95.20
2023-02-11T02:39:10.533Z,85.40
2023-02-11T02:41:39.052Z,77.10
2023-02-11T02:44:08.219Z,69.30
2023-02-11T02:46:37.130Z,73.10
2023-02-11T02:49:06.659Z,65.80
2023-02-11T02:51:39.188Z,68.40
2023-02-11T02:54:31.713Z,63.90
2023-02-11T02:57:31.294Z,74.70
2023-02-11T03:00:18.086Z,68.70
2023-02-11T03:02:51.590Z,63.10
2023-02-11T03:05:42.624Z,68.40
2023-02-11T03:08:28.189Z,69.50
2023-02-11T03:10:56.589Z,72.20
2023-02-11T03:13:28.966Z,68.00
2023-02-11T03:15:59.064Z,68.10
2023-02-11T03:18:28.809Z,65.10
2023-02-11T03:20:57.096Z,67.90
2023-02-11T03:23:29.273Z,66.10
2023-02-11T03:26:02.977Z,68.20
2023-02-11T03:28:35.649Z,71.40
2023-02-11T03:31:34.076Z,69.60
2023-02-11T03:34:10.123Z,60.60
2023-02-11T03:36:41.171Z,62.80
2023-02-11T03:39:10.031Z,68.50
2023-02-11T03:41:38.435Z,65.90
2023-02-11T03:44:07.284Z,62.50
2023-02-11T03:46:38.420Z,63.00
2023-02-11T03:49:12.447Z,65.20
2023-02-11T03:51:40.588Z,62.70
2023-02-11T03:54:14.746Z,65.60
2023-02-11T03:56:51.799Z,63.70
2023-02-11T03:59:18.459Z,65.90
2023-02-11T04:01:45.080Z,71.30
2023-02-11T04:04:11.939Z,68.70
2023-02-11T04:06:38.909Z,59.80
2023-02-11T04:09:05.409Z,70.00
2023-02-11T04:11:31.891Z,68.60
2023-02-11T04:13:58.504Z,65.70
2023-02-11T04:16:25.215Z,63.90
2023-02-11T04:18:52.059Z,61.20
2023-02-11T04:21:18.755Z,61.80
2023-02-11T04:23:45.298Z,62.70
2023-02-11T04:26:12.023Z,59.90
2023-02-11T04:28:38.580Z,58.80
2023-02-11T04:31:05.690Z,59.20
2023-02-11T04:33:32.361Z,52.00
2023-02-11T04:35:59.115Z,53.30
2023-02-11T04:38:25.568Z,52.50
2023-02-11T04:40:52.227Z,48.50
2023-02-11T04:43:18.744Z,49.30
2023-02-11T04:45:45.613Z,48.60
2023-02-11T04:48:12.447Z,47.20
2023-02-11T04:50:38.893Z,49.50
2023-02-11T04:53:05.585Z,51.60
2023-02-11T04:55:32.181Z,49.80
2023-02-11T04:57:58.920Z,48.20
2023-02-11T05:00:25.508Z,49.90
2023-02-11T05:02:52.029Z,49.70
2023-02-11T05:05:18.762Z,48.90
2023-02-11T05:07:45.289Z,47.40
2023-02-11T05:10:11.900Z,46.30
2023-02-11T05:12:38.336Z,47.50
2023-02-11T05:15:05.758Z,48.70
2023-02-11T05:17:32.316Z,49.80
2023-02-11T05:19:58.908Z,50.30
2023-02-11T05:22:25.392Z,48.20
2023-02-11T05:24:51.915Z,48.30
2023-02-11T05:27:18.402Z,48.60
2023-02-11T05:29:44.855Z,50.70
2023-02-11T05:32:11.349Z,48.10
2023-02-11T05:34:38.266Z,51.70
2023-02-11T05:37:04.717Z,49.20
2023-02-11T05:39:31.537Z,49.50
2023-02-11T05:41:57.977Z,52.30
2023-02-11T05:44:24.867Z,52.10
2023-02-11T05:46:51.396Z,52.30
2023-02-11T05:49:18.336Z,51.10
2023-02-11T05:51:44.901Z,54.40
2023-02-11T05:54:12.017Z,56.90
2023-02-11T05:56:38.622Z,57.40
2023-02-11T05:59:05.457Z,54.30
2023-02-11T06:01:32.129Z,52.20
2023-02-11T06:03:58.742Z,51.40
2023-02-11T06:06:25.767Z,50.20
2023-02-11T06:08:52.249Z,50.90
2023-02-11T06:11:19.052Z,51.70
2023-02-11T06:13:45.594Z,52.40
2023-02-11T06:16:12.227Z,51.20
2023-02-11T06:18:39.021Z,54.00
2023-02-11T06:21:10.967Z,56.00
2023-02-11T06:23:38.014Z,59.70
2023-02-11T06:26:06.711Z,54.80
2023-02-11T06:28:34.014Z,54.30
2023-02-11T06:31:06.170Z,54.90
2023-02-11T06:33:33.804Z,53.50
2023-02-11T06:36:00.876Z,48.80
2023-02-11T06:38:27.698Z,48.90
2023-02-11T06:40:54.268Z,49.00
2023-02-11T06:43:20.809Z,48.30
2023-02-11T06:45:53.895Z,50.40
2023-02-11T06:48:21.265Z,47.40
2023-02-11T06:50:47.995Z,50.30
2023-02-11T06:53:14.628Z,49.20
2023-02-11T06:55:41.093Z,43.90
2023-02-11T06:58:07.630Z,43.10
2023-02-11T07:00:34.200Z,50.50
2023-02-11T07:03:00.673Z,41.40
2023-02-11T07:05:27.356Z,42.90
2023-02-11T07:07:54.106Z,45.60
2023-02-11T07:10:20.724Z,55.60
2023-02-11T07:12:47.268Z,58.60
2023-02-11T07:15:13.858Z,61.40
2023-02-11T07:17:40.314Z,62.80
2023-02-11T07:20:07.120Z,64.30
2023-02-11T07:22:34.657Z,56.70
2023-02-11T07:25:01.335Z,50.60
2023-02-11T07:27:27.807Z,48.30
2023-02-11T07:29:54.439Z,45.70
2023-02-11T07:32:21.030Z,46.00
2023-02-11T07:34:47.902Z,48.10
2023-02-11T07:37:14.606Z,54.40
2023-02-11T07:39:41.040Z,45.50
2023-02-11T07:42:07.597Z,46.10
2023-02-11T07:44:34.350Z,43.90
2023-02-11T07:47:01.261Z,45.00
2023-02-11T07:49:28.140Z,43.10
2023-02-11T07:51:54.885Z,60.50
2023-02-11T07:54:21.447Z,70.10
2023-02-11T07:56:48.128Z,52.10
2023-02-11T07:59:14.716Z,46.20
2023-02-11T08:01:41.246Z,39.70
2023-02-11T08:04:07.799Z,42.30
2023-02-11T08:06:39.815Z,41.40
2023-02-11T08:09:08.555Z,37.20
2023-02-11T08:11:35.722Z,37.20
2023-02-11T08:14:02.265Z,35.50
2023-02-11T08:16:31.968Z,38.10
2023-02-11T08:19:01.533Z,39.40
2023-02-11T08:21:29.161Z,35.40
2023-02-11T08:23:56.492Z,36.40
2023-02-11T08:26:26.495Z,35.40
2023-02-11T08:28:55.112Z,37.90
2023-02-11T08:31:25.000Z,39.40
2023-02-11T08:33:52.732Z,35.70
2023-02-11T08:36:22.454Z,36.80
2023-02-11T08:38:49.890Z,25.80
2023-02-11T08:41:17.962Z,22.10
2023-02-11T08:43:45.429Z,21.70
2023-02-11T08:46:15.611Z,16.50
2023-02-11T08:48:43.141Z,15.80
2023-02-11T08:51:29.931Z,16.10
2023-02-11T08:53:57.276Z,15.40
2023-02-11T08:56:24.313Z,14.80
2023-02-11T08:58:51.184Z,15.20
2023-02-11T09:01:22.825Z,14.40
2023-02-11T09:03:50.406Z,15.30
2023-02-11T09:06:17.267Z,14.40
2023-02-11T09:08:46.492Z,14.00
2023-02-11T09:11:13.722Z,14.20
2023-02-11T09:13:41.660Z,13.20
2023-02-11T09:16:08.842Z,13.30
2023-02-11T09:18:35.590Z,14.10
2023-02-11T09:21:04.471Z,12.30
2023-02-11T09:23:31.117Z,13.90
2023-02-11T09:25:57.512Z,13.10
2023-02-11T09:28:24.048Z,13.10
2023-02-11T09:30:51.136Z,14.50
2023-02-11T09:33:17.909Z,14.20
2023-02-11T09:35:44.554Z,13.50
2023-02-11T09:38:10.977Z,14.00
2023-02-11T09:40:43.243Z,15.00
2023-02-11T09:43:20.289Z,14.30
2023-02-11T09:45:47.823Z,13.80
2023-02-11T09:48:20.807Z,12.20
2023-02-11T09:50:52.449Z,13.10
2023-02-11T09:53:26.504Z,13.20
2023-02-11T09:55:59.763Z,12.40
2023-02-11T09:58:35.528Z,15.00
2023-02-11T10:01:02.006Z,13.00
2023-02-11T10:03:43.698Z,13.40
2023-02-11T10:06:32.252Z,14.20
2023-02-11T10:09:25.108Z,14.80
2023-02-11T10:12:25.825Z,13.30
2023-02-11T10:14:55.147Z,12.10
2023-02-11T10:17:28.624Z,12.30
2023-02-11T10:20:04.001Z,13.00
2023-02-11T10:22:47.410Z,12.50
2023-02-11T10:25:27.997Z,12.50
2023-02-11T10:27:58.064Z,12.60
2023-02-11T10:30:52.801Z,13.00
2023-02-11T10:33:36.921Z,13.20
2023-02-11T10:36:04.689Z,14.10
2023-02-11T10:38:31.523Z,13.90
2023-02-11T10:40:57.958Z,14.40
2023-02-11T10:43:28.155Z,14.00
2023-02-11T10:45:56.796Z,14.20
2023-02-11T10:48:47.629Z,14.70
2023-02-11T10:51:21.598Z,14.00
2023-02-11T10:54:04.847Z,14.60
2023-02-11T10:56:34.739Z,15.10
2023-02-11T10:59:21.670Z,15.00
2023-02-11T11:01:56.234Z,15.00
2023-02-11T11:04:45.421Z,14.60
2023-02-11T11:07:25.150Z,14.10
2023-02-11T11:10:04.990Z,15.00
2023-02-11T11:12:45.141Z,17.20
2023-02-11T11:15:11.757Z,16.50
2023-02-11T11:17:38.417Z,17.00
2023-02-11T11:20:25.444Z,15.40
2023-02-11T11:23:07.627Z,15.50
2023-02-11T11:25:38.484Z,15.20
2023-02-11T11:28:05.273Z,16.40
2023-02-11T11:30:39.393Z,18.40
2023-02-11T11:33:34.300Z,14.80
2023-02-11T11:36:06.425Z,15.70
2023-02-11T11:38:35.071Z,15.90
2023-02-11T11:41:16.959Z,17.10
2023-02-11T11:43:57.019Z,21.20
2023-02-11T11:46:28.087Z,15.60
2023-02-11T11:49:04.107Z,16.60
2023-02-11T11:51:32.898Z,14.90
2023-02-11T11:54:15.689Z,16.00
2023-02-11T11:56:53.804Z,16.80
2023-02-11T11:59:22.529Z,16.90
2023-02-11T12:02:12.256Z,17.20
2023-02-11T12:04:47.950Z,14.80
2023-02-11T12:07:14.362Z,17.60
2023-02-11T12:09:43.639Z,16.50
2023-02-11T12:12:13.051Z,15.00
2023-02-11T12:15:07.156Z,15.80
2023-02-11T12:17:43.167Z,14.10
2023-02-11T12:20:31.563Z,16.10
2023-02-11T12:23:34.569Z,15.80
2023-02-11T12:26:11.245Z,14.90
2023-02-11T12:28:46.708Z,14.20
2023-02-11T12:31:37.450Z,13.10
2023-02-11T12:34:41.820Z,14.40
2023-02-11T12:37:47.023Z,13.20
2023-02-11T12:40:23.078Z,14.10
2023-02-11T12:43:13.211Z,13.60
2023-02-11T12:46:07.607Z,13.50
2023-02-11T12:48:59.314Z,13.40
2023-02-11T12:51:50.178Z,13.90
2023-02-11T12:54:22.460Z,13.10
2023-02-11T12:57:15.132Z,14.60
2023-02-11T13:00:05.732Z,12.90
2023-02-11T13:03:07.222Z,14.80
2023-02-11T13:05:54.164Z,15.70
2023-02-11T13:08:41.236Z,17.10
2023-02-11T13:11:21.952Z,13.90
2023-02-11T13:14:12.101Z,14.90
2023-02-11T13:16:47.559Z,14.80
2023-02-11T13:19:52.921Z,16.20
2023-02-11T13:22:31.736Z,14.10
2023-02-11T13:25:02.388Z,13.80
2023-02-11T13:28:05.752Z,9.80
2023-02-11T13:30:35.332Z,13.40
2023-02-11T13:33:04.224Z,13.60
2023-02-11T13:35:31.047Z,13.60
2023-02-11T13:38:00.182Z,13.50
2023-02-11T13:40:36.800Z,14.80
2023-02-11T13:43:06.760Z,13.70
2023-02-11T13:45:50.154Z,13.60
2023-02-11T13:48:25.419Z,13.30
2023-02-11T13:50:56.270Z,13.00
2023-02-11T13:53:24.027Z,12.60
2023-02-11T13:55:53.156Z,15.30
2023-02-11T13:58:28.826Z,17.40
2023-02-11T14:00:55.983Z,17.00
2023-02-11T14:03:31.866Z,17.00
2023-02-11T14:06:10.746Z,18.10
2023-02-11T14:08:39.057Z,19.50
2023-02-11T14:11:30.921Z,20.10
2023-02-11T14:14:19.328Z,18.10
2023-02-11T14:17:07.984Z,18.30
2023-02-11T14:19:40.526Z,16.50
2023-02-11T14:22:33.622Z,16.60
2023-02-11T14:25:05.454Z,18.90
2023-02-11T14:27:43.846Z,19.40
2023-02-11T14:30:33.416Z,16.90
2023-02-11T14:33:18.662Z,14.10
2023-02-11T14:35:56.688Z,15.50
2023-02-11T14:38:29.318Z,15.40
2023-02-11T14:41:06.603Z,16.60
2023-02-11T14:43:44.131Z,15.60
2023-02-11T14:46:11.059Z,14.90
2023-02-11T14:48:40.147Z,15.90
2023-02-11T14:51:20.075Z,15.50
2023-02-11T14:53:50.074Z,15.70
2023-02-11T14:56:36.549Z,16.90
2023-02-11T14:59:03.004Z,17.50
2023-02-11T15:01:41.298Z,17.40
2023-02-11T15:04:27.016Z,18.80
2023-02-11T15:06:54.789Z,16.60
2023-02-11T15:09:43.243Z,17.80
2023-02-11T15:12:28.706Z,16.30
2023-02-11T15:14:59.251Z,18.00
2023-02-11T15:17:29.032Z,19.20
2023-02-11T15:19:59.582Z,19.20
2023-02-11T15:22:29.987Z,18.60
2023-02-11T15:25:16.988Z,17.10
2023-02-11T15:27:47.084Z,19.20
2023-02-11T15:30:22.958Z,18.80
2023-02-11T15:33:03.587Z,21.10
2023-02-11T15:35:37.164Z,16.10
2023-02-11T15:38:04.764Z,20.30
2023-02-11T15:40:35.307Z,24.90
2023-02-11T15:43:05.277Z,27.20
2023-02-11T15:45:38.359Z,24.40
2023-02-11T15:48:10.151Z,23.60
2023-02-11T15:50:39.217Z,21.60
2023-02-11T15:53:22.547Z,21.00
2023-02-11T15:55:51.877Z,23.00
2023-02-11T15:58:19.007Z,23.20
2023-02-11T16:00:52.554Z,24.80
2023-02-11T16:03:25.688Z,23.90
2023-02-11T16:05:52.545Z,26.40
2023-02-11T16:08:26.459Z,24.40
2023-02-11T16:11:04.576Z,27.40
2023-02-11T16:13:32.138Z,27.60
2023-02-11T16:16:02.691Z,29.30
2023-02-11T16:18:38.674Z,24.10
2023-02-11T16:21:12.779Z,23.90
2023-02-11T16:23:41.756Z,24.90
2023-02-11T16:26:22.725Z,24.00
2023-02-11T16:28:49.667Z,31.30
2023-02-11T16:31:17.068Z,44.70
2023-02-11T16:33:43.585Z,42.50
2023-02-11T16:36:15.304Z,43.20
2023-02-11T16:38:41.784Z,48.80
2023-02-11T16:41:08.924Z,44.30
2023-02-11T16:43:35.469Z,56.80
2023-02-11T16:46:01.878Z,50.20
2023-02-11T16:48:28.542Z,50.00
2023-02-11T16:50:55.658Z,57.10
2023-02-11T16:53:24.369Z,83.70
2023-02-11T16:55:52.770Z,55.00
2023-02-11T16:58:20.132Z,52.20
2023-02-11T17:00:48.275Z,46.10
2023-02-11T17:03:22.958Z,50.10
2023-02-11T17:05:55.649Z,44.30
2023-02-11T17:08:22.989Z,42.20
2023-02-11T17:10:50.079Z,54.10
2023-02-11T17:13:16.776Z,48.20
2023-02-11T17:15:43.173Z,46.40
2023-02-11T17:18:13.577Z,33.70
2023-02-11T17:20:41.066Z,31.70
2023-02-11T17:23:07.712Z,44.40
2023-02-11T17:25:34.404Z,46.40
2023-02-11T17:28:01.198Z,36.60
2023-02-11T17:30:27.771Z,31.00
2023-02-11T17:32:54.537Z,31.50
2023-02-11T17:35:21.387Z,24.40
2023-02-11T17:37:48.227Z,22.70
2023-02-11T17:40:14.886Z,21.90
2023-02-11T17:42:41.415Z,24.50
2023-02-11T17:45:08.886Z,24.80
2023-02-11T17:47:35.743Z,25.80
2023-02-11T17:50:03.803Z,28.30
2023-02-11T17:52:30.826Z,26.50
2023-02-11T17:54:57.396Z,26.00
2023-02-11T17:57:24.139Z,31.20
2023-02-11T17:59:50.882Z,39.00
2023-02-11T18:02:18.201Z,27.30
2023-02-11T18:04:44.673Z,27.60
2023-02-11T18:07:11.481Z,24.50
2023-02-11T18:09:40.247Z,23.60
2023-02-11T18:12:08.216Z,26.20
2023-02-11T18:14:34.725Z,28.60
2023-02-11T18:17:01.604Z,28.50
2023-02-11T18:19:28.843Z,28.10
2023-02-11T18:21:55.257Z,24.40
2023-02-11T18:24:22.150Z,24.00
2023-02-11T18:26:48.668Z,23.30
2023-02-11T18:29:15.619Z,24.20
2023-02-11T18:31:42.171Z,23.80
2023-02-11T18:34:09.204Z,28.00
2023-02-11T18:36:36.791Z,26.10
2023-02-11T18:39:04.892Z,22.20
2023-02-11T18:41:31.637Z,21.60
2023-02-11T18:43:58.766Z,24.50
2023-02-11T18:46:25.819Z,23.30
2023-02-11T18:48:54.410Z,23.60
2023-02-11T18:51:22.415Z,24.20
2023-02-11T18:53:49.232Z,25.10
2023-02-11T18:56:19.012Z,23.70
2023-02-11T18:58:45.491Z,30.30
2023-02-11T19:01:17.835Z,23.70
2023-02-11T19:03:45.747Z,35.80
2023-02-11T19:06:21.913Z,18.50
2023-02-11T19:08:48.449Z,21.10
2023-02-11T19:11:14.942Z,19.30
2023-02-11T19:13:41.526Z,24.70
2023-02-11T19:16:11.368Z,22.00
2023-02-11T19:18:38.197Z,21.20
2023-02-11T19:21:10.215Z,19.10
2023-02-11T19:23:36.779Z,21.40
2023-02-11T19:26:03.808Z,20.70
2023-02-11T19:28:31.862Z,19.70
2023-02-11T19:30:58.904Z,20.40
2023-02-11T19:33:25.841Z,20.20
2023-02-11T19:35:52.804Z,22.00
2023-02-11T19:38:19.448Z,21.50
2023-02-11T19:40:46.065Z,25.20
2023-02-11T19:43:13.139Z,23.10
2023-02-11T19:45:39.675Z,26.00
2023-02-11T19:48:06.747Z,24.50
2023-02-11T19:50:35.239Z,27.20
2023-02-11T19:53:02.471Z,26.90
2023-02-11T19:55:29.312Z,27.00
2023-02-11T19:57:56.166Z,29.00
2023-02-11T20:00:22.707Z,31.80
2023-02-11T20:02:49.384Z,40.30
2023-02-11T20:05:16.296Z,37.10
2023-02-11T20:07:43.258Z,35.60
2023-02-11T20:10:10.422Z,37.00
2023-02-11T20:12:37.153Z,33.70
2023-02-11T20:15:04.416Z,39.10
2023-02-11T20:17:31.358Z,31.60
2023-02-11T20:19:58.260Z,27.60
2023-02-11T20:22:25.057Z,22.50
2023-02-11T20:24:51.510Z,16.10
2023-02-11T20:27:20.033Z,14.50
2023-02-11T20:29:46.929Z,14.70
2023-02-11T20:32:14.550Z,13.80
2023-02-11T20:34:41.352Z,13.30
2023-02-11T20:37:07.883Z,12.50
2023-02-11T20:39:34.384Z,13.40
2023-02-11T20:42:01.212Z,12.50
2023-02-11T20:44:27.918Z,13.00
2023-02-11T20:46:54.714Z,14.20
2023-02-11T20:49:24.302Z,15.10
2023-02-11T20:51:51.243Z,16.10
2023-02-11T20:54:19.950Z,17.80
2023-02-11T20:56:49.219Z,14.30
2023-02-11T20:59:16.510Z,14.70
2023-02-11T21:01:46.611Z,15.00
2023-02-11T21:04:17.027Z,15.10
2023-02-11T21:06:45.942Z,14.30
2023-02-11T21:09:15.331Z,14.90
2023-02-11T21:11:42.899Z,17.10
2023-02-11T21:14:11.384Z,18.20
2023-02-11T21:16:39.061Z,19.60
2023-02-11T21:19:06.617Z,14.10
2023-02-11T21:21:36.134Z,16.00
2023-02-11T21:24:02.745Z,18.50
2023-02-11T21:26:29.322Z,14.20
2023-02-11T21:28:56.080Z,15.90
2023-02-11T21:31:31.599Z,15.40
2023-02-11T21:33:58.782Z,21.90
2023-02-11T21:36:27.053Z,16.50
2023-02-11T21:38:53.857Z,14.80
2023-02-11T21:41:21.987Z,15.70
2023-02-11T21:43:49.165Z,14.60
2023-02-11T21:46:16.991Z,16.40
2023-02-11T21:48:43.520Z,15.40
2023-02-11T21:51:14.501Z,13.00
2023-02-11T21:53:41.480Z,25.80
2023-02-11T21:56:18.564Z,33.00
2023-02-11T21:58:46.148Z,15.10
2023-02-11T22:01:18.391Z,16.20
2023-02-11T22:03:45.927Z,14.40
2023-02-11T22:06:19.041Z,16.60
2023-02-11T22:08:45.463Z,16.20
2023-02-11T22:11:13.113Z,15.00
2023-02-11T22:13:41.015Z,16.00
2023-02-11T22:16:14.188Z,16.20
2023-02-11T22:18:41.697Z,15.40
2023-02-11T22:21:11.177Z,17.00
2023-02-11T22:23:39.354Z,16.50
2023-02-11T22:26:08.770Z,17.30
2023-02-11T22:28:35.591Z,17.70
2023-02-11T22:31:02.552Z,17.70
2023-02-11T22:33:29.201Z,19.70
2023-02-11T22:36:08.855Z,20.50
2023-02-11T22:38:36.635Z,18.90
2023-02-11T22:41:09.243Z,17.80
2023-02-11T22:43:36.643Z,17.60
2023-02-11T22:46:05.524Z,17.70
2023-02-11T22:48:33.275Z,19.40
2023-02-11T22:51:07.338Z,19.00
2023-02-11T22:53:34.565Z,19.60
2023-02-11T22:56:09.639Z,18.70
2023-02-11T22:58:36.791Z,16.50
2023-02-11T23:01:04.542Z,15.40
2023-02-11T23:03:31.610Z,14.50
2023-02-11T23:05:59.435Z,13.50
2023-02-11T23:08:27.559Z,14.80
2023-02-11T23:10:54.453Z,14.00
2023-02-11T23:13:21.274Z,13.30
2023-02-11T23:15:48.191Z,12.00
2023-02-11T23:18:15.483Z,12.80
2023-02-11T23:20:44.043Z,13.10
2023-02-11T23:23:11.138Z,14.00
2023-02-11T23:25:43.517Z,13.60
2023-02-11T23:28:11.127Z,13.10
2023-02-11T23:30:38.529Z,12.90
2023-02-11T23:33:05.109Z,12.90
2023-02-11T23:35:31.703Z,13.20
2023-02-11T23:37:58.243Z,13.80
2023-02-11T23:40:24.736Z,14.50
2023-02-11T23:42:51.947Z,13.30
2023-02-11T23:45:18.531Z,14.20
2023-02-11T23:47:45.227Z,14.90
2023-02-11T23:50:11.991Z,16.30
2023-02-11T23:52:38.509Z,16.60
2023-02-11T23:55:05.895Z,17.90
2023-02-11T23:57:33.555Z,21.20
